Time;durP1;ratioP1;P1;durP2;ratioP2;P2;SDS_P1;SDS_P2;PMS_P1;PMS_P2;Temp;Humidity;BMP_temperature;BMP_pressure;BME280_temperature;BME280_humidity;BME280_pressure;Samples;Min_cycle;Max_cycle;Signal;HPM_P1;HPM_P2
2022/08/11 00:00:11;;;;;;;6.70;3.90;;;;;;;22.37;100.00;99873.39;1673650;84;21534;-68
2022/08/11 00:02:50;;;;;;;5.22;4.42;;;;;;;22.44;100.00;99862.80;1673070;85;21064;-73
2022/08/11 00:05:20;;;;;;;6.83;4.83;;;;;;;22.39;100.00;99865.39;1673187;84;21658;-70
2022/08/11 00:07:53;;;;;;;7.53;3.98;;;;;;;22.40;100.00;99868.39;1673303;85;21025;-71
2022/08/11 00:10:23;;;;;;;7.47;4.20;;;;;;;22.50;100.00;99874.66;1673017;84;21091;-67
2022/08/11 00:12:56;;;;;;;4.95;4.35;;;;;;;22.50;100.00;99876.06;1673085;85;21150;-68
2022/08/11 00:15:27;;;;;;;11.53;4.50;;;;;;;22.53;100.00;99887.71;1673109;85;21047;-69
2022/08/11 00:17:58;;;;;;;6.83;4.55;;;;;;;22.56;100.00;99889.14;1673051;84;21578;-72
2022/08/11 00:20:34;;;;;;;9.18;4.05;;;;;;;22.54;100.00;99884.51;1672043;84;21035;-68
2022/08/11 00:23:07;;;;;;;6.37;4.47;;;;;;;22.49;100.00;99890.49;1652081;85;21554;-75
2022/08/11 00:25:46;;;;;;;5.62;3.80;;;;;;;22.44;100.00;99895.08;1670058;85;21075;-66
2022/08/11 00:28:34;;;;;;;4.90;3.92;;;;;;;22.42;100.00;99896.88;1672795;85;21544;-68
2022/08/11 00:31:08;;;;;;;5.72;3.92;;;;;;;22.42;100.00;99897.47;1673249;84;21107;-68
2022/08/11 00:33:42;;;;;;;5.80;4.17;;;;;;;22.43;100.00;99902.72;1673426;85;21660;-68
2022/08/11 00:36:11;;;;;;;6.67;4.00;;;;;;;22.47;100.00;99904.11;1672819;85;21511;-72
2022/08/11 00:38:41;;;;;;;4.58;3.80;;;;;;;22.47;100.00;99901.30;1673175;84;21846;-68
2022/08/11 00:41:31;;;;;;;6.35;4.00;;;;;;;22.45;100.00;99896.09;1672729;84;21097;-67
2022/08/11 00:44:24;;;;;;;4.90;3.87;;;;;;;22.43;100.00;99902.72;1602343;85;22190;-66
2022/08/11 00:47:00;;;;;;;5.40;3.95;;;;;;;22.38;100.00;99894.67;1673288;84;21052;-69
2022/08/11 00:50:04;;;;;;;7.58;3.62;;;;;;;22.37;100.00;99895.84;1673041;85;21112;-68
2022/08/11 00:52:56;;;;;;;4.78;4.03;;;;;;;22.28;100.00;99897.59;1674836;85;21090;-67
2022/08/11 00:55:48;;;;;;;8.53;3.90;;;;;;;22.30;100.00;99892.41;1683013;83;21055;-68
2022/08/11 00:58:36;;;;;;;4.72;3.35;;;;;;;22.28;100.00;99893.38;1690222;84;21012;-66
2022/08/11 01:01:21;;;;;;;4.50;3.70;;;;;;;22.28;100.00;99886.37;1661312;86;21187;-69
2022/08/11 01:04:02;;;;;;;7.62;3.87;;;;;;;22.34;100.00;99889.03;1683881;84;21065;-68
2022/08/11 01:07:01;;;;;;;10.08;3.87;;;;;;;22.31;100.00;99881.41;1679024;83;21494;-68
2022/08/11 01:09:52;;;;;;;7.85;3.60;;;;;;;22.30;100.00;99881.17;1679772;85;21066;-70
2022/08/11 01:12:46;;;;;;;6.50;3.52;;;;;;;22.28;100.00;99879.36;1678237;85;21059;-69
2022/08/11 01:15:39;;;;;;;7.67;3.73;;;;;;;22.24;100.00;99877.14;1681760;84;21090;-70
2022/08/11 01:18:34;;;;;;;;;;;;;;;22.15;100.00;99878.08;1681525;83;21569;-67
2022/08/11 01:21:44;;;;;;;7.75;3.40;;;;;;;22.00;100.00;99878.81;1682526;85;21059;-67
2022/08/11 01:24:45;;;;;;;5.03;3.62;;;;;;;21.86;100.00;99873.89;1682876;85;21047;-67
2022/08/11 01:27:52;;;;;;;6.83;3.80;;;;;;;21.80;100.00;99877.45;1683029;83;21082;-68
2022/08/11 01:30:56;;;;;;;4.70;3.30;;;;;;;21.87;100.00;99871.29;1678996;85;21162;-68
2022/08/11 01:34:12;;;;;;;5.60;4.25;;;;;;;21.83;100.00;99874.68;1682943;83;21026;-72
2022/08/11 01:36:59;;;;;;;6.67;3.65;;;;;;;21.86;100.00;99879.50;1682616;85;21513;-67
2022/08/11 01:40:15;;;;;;;4.58;3.22;;;;;;;21.90;100.00;99880.94;1678739;85;21094;-67
2022/08/11 01:46:07;;;;;;;4.37;3.40;;;;;;;21.96;100.00;99872.36;1682967;85;21048;-72
2022/08/11 01:49:23;;;;;;;5.90;3.92;;;;;;;21.99;100.00;99865.96;1682752;85;21549;-71
2022/08/11 01:52:23;;;;;;;5.40;4.08;;;;;;;21.99;100.00;99867.36;1681382;84;21076;-69
2022/08/11 01:55:27;;;;;;;6.15;3.50;;;;;;;21.97;100.00;99857.75;1651727;85;21079;-69
2022/08/11 01:58:20;;;;;;;6.08;3.45;;;;;;;22.01;100.00;99855.16;1650095;85;21068;-69
2022/08/11 02:01:01;;;;;;;4.50;3.58;;;;;;;22.03;100.00;99858.16;1649950;85;21106;-70
2022/08/11 02:04:10;;;;;;;8.15;3.47;;;;;;;22.04;100.00;99848.57;1649139;84;21151;-71
2022/08/11 02:06:55;;;;;;;7.03;4.00;;;;;;;22.09;100.00;99848.20;1650569;85;21090;-73
2022/08/11 02:11:29;;;;;;;6.55;3.90;;;;;;;22.17;100.00;99843.42;1679667;83;21560;-69
2022/08/11 02:12:50;;;;;;;6.45;3.90;;;;;;;22.11;100.00;99840.99;1675786;83;21139;-68
2022/08/11 02:15:45;;;;;;;12.33;3.83;;;;;;;22.09;100.00;99848.98;1676605;83;21603;-68
2022/08/11 02:23:38;;;;;;;5.22;3.33;;;;;;;22.16;100.00;99847.44;1679444;83;21063;-69
2022/08/11 02:24:00;;;;;;;6.35;3.83;;;;;;;22.16;100.00;99857.26;1659818;85;21058;-67
2022/08/11 02:26:49;;;;;;;5.67;3.45;;;;;;;22.19;100.00;99854.48;1679462;83;21121;-67
2022/08/11 02:29:25;;;;;;;5.28;3.50;;;;;;;22.11;100.00;99857.01;1677218;83;21016;-69
2022/08/11 02:35:35;;;;;;;7.60;4.28;;;;;;;21.94;100.00;99861.33;1627482;83;21193;-69
2022/08/11 02:38:23;;;;;;;9.15;4.50;;;;;;;21.82;100.00;99854.04;1653463;84;21186;-70
2022/08/11 02:44:48;;;;;;;7.15;4.50;;;;;;;21.72;100.00;99850.72;1681217;83;21123;-72
2022/08/11 02:51:44;;;;;;;7.92;3.92;;;;;;;21.61;100.00;99852.64;1678534;83;21073;-67
2022/08/11 02:54:28;;;;;;;4.75;3.65;;;;;;;21.76;100.00;99849.35;1697935;81;21080;-66
2022/08/11 02:57:03;;;;;;;5.62;4.50;;;;;;;21.85;100.00;99849.84;1704697;82;21016;-67
2022/08/11 02:59:51;;;;;;;4.45;4.05;;;;;;;21.84;100.00;99848.23;1685756;83;21287;-67
2022/08/11 03:02:57;;;;;;;7.53;3.60;;;;;;;21.86;100.00;99854.27;1710212;82;21067;-69
2022/08/11 03:06:06;;;;;;;5.20;4.22;;;;;;;21.80;100.00;99845.20;1672448;84;21799;-69
2022/08/11 03:22:30;;;;;;;8.28;4.15;;;;;;;22.32;100.00;99836.70;1791885;78;22690;-66
2022/08/11 03:25:04;;;;;;;7.72;3.72;;;;;;;22.37;100.00;99844.73;1833575;78;20955;-66
2022/08/11 03:27:53;;;;;;;6.67;3.87;;;;;;;22.35;100.00;99844.91;1828146;78;21189;-66
2022/08/11 03:30:34;;;;;;;4.53;4.05;;;;;;;22.39;100.00;99844.34;1833917;78;20908;-66
2022/08/11 03:36:28;;;;;;;7.20;4.70;;;;;;;22.32;100.00;99840.91;1814103;78;21496;-65
2022/08/11 03:39:06;;;;;;;10.05;4.17;;;;;;;22.15;100.00;99839.61;1833760;78;20967;-66
2022/08/11 03:41:43;;;;;;;5.87;4.75;;;;;;;22.11;100.00;99850.00;1833350;78;21203;-65
2022/08/11 03:44:47;;;;;;;4.97;4.03;;;;;;;21.98;100.00;99857.35;1833841;78;20936;-65
2022/08/11 03:47:49;;;;;;;5.07;4.57;;;;;;;21.93;100.00;99863.91;1833561;78;21492;-65
2022/08/11 03:50:48;;;;;;;4.60;3.95;;;;;;;21.91;100.00;99867.70;1825588;78;21015;-64
2022/08/11 03:53:52;;;;;;;5.10;4.60;;;;;;;21.87;100.00;99874.09;1737652;81;21043;-66
2022/08/11 03:56:39;;;;;;;7.83;5.03;;;;;;;21.91;100.00;99881.72;1838965;77;21166;-63
2022/08/11 03:59:29;;;;;;;4.50;4.10;;;;;;;22.02;100.00;99871.41;1859276;77;21029;-65
2022/08/11 04:02:32;;;;;;;8.23;5.12;;;;;;;22.06;100.00;99857.41;1856792;77;20999;-65
2022/08/11 04:05:27;;;;;;;5.20;4.70;;;;;;;22.09;100.00;99847.59;1836431;78;20987;-65
2022/08/11 04:08:32;;;;;;;7.15;4.90;;;;;;;22.12;100.00;99840.41;1860797;75;21059;-64
2022/08/11 04:11:26;;;;;;;6.78;4.60;;;;;;;22.06;100.00;99826.55;1867526;75;21437;-65
2022/08/11 04:17:49;;;;;;;4.72;4.12;;;;;;;22.12;100.00;99846.83;1769564;81;21015;-65
2022/08/11 04:20:50;;;;;;;9.18;4.53;;;;;;;22.17;100.00;99842.84;1733813;82;20995;-66
2022/08/11 04:24:16;;;;;;;6.30;4.45;;;;;;;22.13;100.00;99840.01;1769837;80;20980;-66
2022/08/11 04:26:57;;;;;;;5.78;4.55;;;;;;;22.16;100.00;99836.22;1755718;81;21208;-66
2022/08/11 04:29:40;;;;;;;10.13;4.83;;;;;;;22.15;100.00;99828.98;1758432;80;21019;-63
2022/08/11 04:32:30;;;;;;;6.65;4.67;;;;;;;22.10;100.00;99825.95;1764671;80;21019;-64
2022/08/11 04:35:14;;;;;;;6.20;5.03;;;;;;;22.03;100.00;99832.33;1723175;82;20983;-65
2022/08/11 04:38:14;;;;;;;5.40;4.47;;;;;;;22.01;100.00;99831.33;1731278;80;21037;-63
2022/08/11 04:41:15;;;;;;;7.20;4.75;;;;;;;21.96;100.00;99819.66;1746747;81;21538;-64
2022/08/11 04:44:25;;;;;;;6.70;4.83;;;;;;;21.91;100.00;99813.02;1727957;82;21072;-64
2022/08/11 05:02:34;;;;;;;5.70;4.40;;;;;;;22.02;100.00;99780.25;1734095;80;21089;-66
2022/08/11 05:05:31;;;;;;;8.55;5.28;;;;;;;22.11;100.00;99778.46;1746122;81;21101;-64
2022/08/11 05:08:51;;;;;;;5.17;4.30;;;;;;;22.11;100.00;99788.28;1751988;80;21042;-64
2022/08/11 05:11:26;;;;;;;5.95;5.00;;;;;;;22.15;100.00;99800.92;1738151;81;21113;-65
2022/08/11 05:37:32;;;;;;;9.35;5.28;;;;;;;22.35;100.00;99838.71;1654975;86;21219;-63
2022/08/11 05:57:05;;;;;;;7.08;5.53;;;;;;;22.21;100.00;99868.11;1664791;86;21064;-66
2022/08/11 05:59:31;;;;;;;8.80;5.92;;;;;;;22.23;100.00;99860.08;1639883;87;21096;-65
2022/08/11 06:02:06;;;;;;;6.53;5.78;;;;;;;22.27;100.00;99862.33;1651573;86;21025;-66
2022/08/11 06:04:32;;;;;;;7.33;5.92;;;;;;;22.27;100.00;99846.08;1647862;86;21099;-65
2022/08/11 06:07:08;;;;;;;6.75;5.45;;;;;;;22.20;100.00;99840.64;1668688;84;21281;-65
2022/08/11 06:09:39;;;;;;;7.50;5.83;;;;;;;22.17;100.00;99828.00;1670860;84;21123;-66
2022/08/11 06:12:10;;;;;;;6.33;5.33;;;;;;;22.20;100.00;99845.44;1667859;86;21111;-65
2022/08/11 06:14:44;;;;;;;7.20;5.95;;;;;;;22.24;100.00;99858.31;1667517;85;21064;-65
2022/08/11 06:17:12;;;;;;;11.08;5.80;;;;;;;22.29;100.00;99858.53;1692671;83;21073;-67
2022/08/11 06:19:40;;;;;;;9.10;5.37;;;;;;;22.31;100.00;99873.58;1678351;84;21575;-65
2022/08/11 06:22:10;;;;;;;7.58;5.72;;;;;;;22.31;100.00;99893.22;1681221;84;21106;-65
2022/08/11 06:24:44;;;;;;;7.28;5.30;;;;;;;22.37;100.00;99906.48;1663928;84;21127;-66
2022/08/11 06:27:10;;;;;;;6.85;5.25;;;;;;;22.35;100.00;99918.69;1637987;85;21047;-65
2022/08/11 06:29:41;;;;;;;6.65;5.53;;;;;;;22.41;100.00;99919.73;1670050;84;21027;-65
2022/08/11 06:32:05;;;;;;;6.45;5.37;;;;;;;22.45;100.00;99916.35;1668580;84;21120;-66
2022/08/11 06:34:58;;;;;;;5.50;4.97;;;;;;;22.42;100.00;99905.89;1662349;84;21094;-65
2022/08/11 06:38:19;;;;;;;6.42;5.75;;;;;;;22.53;100.00;99910.17;1672008;84;21059;-65
2022/08/11 06:44:15;;;;;;;9.70;5.67;;;;;;;22.42;100.00;99919.33;1682757;84;21085;-66
2022/08/11 06:46:47;;;;;;;6.42;5.25;;;;;;;22.36;100.00;99912.48;1661795;85;21553;-65
2022/08/11 06:52:04;;;;;;;10.95;6.00;;;;;;;22.35;100.00;99915.07;1665343;84;21039;-65
2022/08/11 06:54:33;;;;;;;11.75;5.28;;;;;;;22.37;100.00;99905.67;1658764;84;21060;-66
2022/08/11 07:02:35;;;;;;;6.53;5.75;;;;;;;22.43;100.00;99913.94;1666881;84;21095;-64
2022/08/11 07:05:25;;;;;;;7.03;5.50;;;;;;;22.39;100.00;99920.13;1677417;84;20995;-64
2022/08/11 07:17:16;;;;;;;7.45;5.85;;;;;;;22.45;100.00;99910.13;1665773;84;21459;-64
2022/08/11 07:30:57;;;;;;;13.13;5.95;;;;;;;22.41;100.00;99888.85;1666302;85;21068;-64
2022/08/11 07:33:28;;;;;;;15.93;6.90;;;;;;;22.45;100.00;99880.65;1667171;86;21015;-66
2022/08/11 07:35:56;;;;;;;10.30;6.22;;;;;;;22.43;100.00;99875.23;1666985;85;21044;-65
2022/08/11 07:38:43;;;;;;;8.38;5.58;;;;;;;22.37;100.00;99884.03;1667174;86;21028;-67
2022/08/11 07:41:22;;;;;;;8.83;6.72;;;;;;;22.36;100.00;99883.84;1667283;84;21164;-64
2022/08/11 07:43:51;;;;;;;15.20;8.15;;;;;;;22.32;100.00;99866.16;1664690;84;21518;-64
2022/08/11 07:54:34;;;;;;;10.28;6.47;;;;;;;22.33;100.00;99866.97;1645696;86;21681;-65
2022/08/11 08:19:15;;;;;;;5.85;4.62;;;;;;;23.18;100.00;99881.55;1696318;84;21054;-63
2022/08/11 08:21:42;;;;;;;5.10;4.60;;;;;;;23.27;100.00;99884.75;1707382;83;21119;-66
2022/08/11 08:24:08;;;;;;;8.15;4.58;;;;;;;23.34;100.00;99886.18;1702513;83;21356;-65
2022/08/11 08:32:07;;;;;;;7.92;4.53;;;;;;;23.28;100.00;99879.36;1712758;83;21065;-63
2022/08/11 08:34:34;;;;;;;5.58;4.22;;;;;;;23.21;100.00;99882.14;1712228;83;21585;-65
2022/08/11 08:37:01;;;;;;;4.83;4.28;;;;;;;23.19;100.00;99883.14;1710337;83;21015;-65
2022/08/11 08:39:28;;;;;;;8.08;4.33;;;;;;;23.27;100.00;99879.13;1694200;83;21032;-64
2022/08/11 08:41:56;;;;;;;4.60;4.03;;;;;;;23.31;100.00;99874.34;1701357;83;21116;-64
2022/08/11 08:44:23;;;;;;;6.95;4.00;;;;;;;23.41;100.00;99875.58;1712958;83;21608;-64
2022/08/11 08:46:57;;;;;;;4.25;3.85;;;;;;;23.48;100.00;99875.37;1713255;83;21489;-66
2022/08/11 08:49:33;;;;;;;4.78;4.25;;;;;;;23.48;100.00;99860.72;1712949;83;21532;-67
2022/08/11 08:52:02;;;;;;;4.20;3.72;;;;;;;23.47;100.00;99854.91;1713584;83;21481;-65
2022/08/11 08:54:36;;;;;;;8.30;3.47;;;;;;;23.47;100.00;99863.34;1722125;82;21083;-65
2022/08/11 08:57:25;;;;;;;4.72;3.83;;;;;;;23.51;100.00;99881.63;1708903;82;21085;-64
2022/08/11 08:59:51;;;;;;;5.47;3.47;;;;;;;23.53;100.00;99871.56;1735593;81;21256;-64
2022/08/11 09:02:24;;;;;;;3.98;3.55;;;;;;;23.55;100.00;99874.78;1739185;81;21025;-64
2022/08/11 09:04:59;;;;;;;4.22;2.50;;;;;;;23.58;100.00;99871.76;1734436;81;21058;-65
2022/08/11 09:07:27;;;;;;;3.17;2.87;;;;;;;23.64;100.00;99868.77;1737275;81;21078;-65
2022/08/11 09:09:56;;;;;;;3.00;2.70;;;;;;;23.69;100.00;99875.39;1745727;80;21073;-65
2022/08/11 09:12:28;;;;;;;3.65;2.95;;;;;;;23.76;100.00;99878.81;1760261;80;21140;-64
2022/08/11 09:15:02;;;;;;;3.42;2.70;;;;;;;23.74;100.00;99883.22;1750780;80;21483;-66
2022/08/11 09:17:36;;;;;;;4.00;3.00;;;;;;;23.77;100.00;99881.81;1760126;80;21034;-64
2022/08/11 09:20:18;;;;;;;3.50;3.20;;;;;;;23.75;100.00;99879.22;1751991;80;21583;-65
2022/08/11 09:28:21;;;;;;;3.90;3.08;;;;;;;23.68;100.00;99896.27;1756223;80;21019;-65
2022/08/11 09:30:53;;;;;;;3.77;3.35;;;;;;;23.77;100.00;99900.09;1718377;83;21034;-65
2022/08/11 09:33:23;;;;;;;6.83;4.08;;;;;;;23.86;100.00;99896.06;1751654;80;20995;-66
2022/08/11 09:35:51;;;;;;;3.40;2.95;;;;;;;23.84;100.00;99897.88;1755019;80;21023;-64
2022/08/11 09:41:10;;;;;;;3.47;3.17;;;;;;;23.76;100.00;99890.06;1726265;83;20987;-64
2022/08/11 09:46:27;;;;;;;4.97;3.70;;;;;;;23.83;100.00;99891.44;1743999;80;21473;-63
2022/08/11 09:48:57;;;;;;;5.30;3.98;;;;;;;23.76;100.00;99892.88;1751171;80;20988;-65
2022/08/11 09:51:27;;;;;;;4.42;4.00;;;;;;;23.51;100.00;99889.43;1737076;82;21570;-64
2022/08/11 09:53:54;;;;;;;5.33;4.17;;;;;;;23.50;100.00;99892.65;1720618;82;21003;-72
2022/08/11 09:59:08;;;;;;;5.58;4.78;;;;;;;23.41;100.00;99888.81;1745578;82;21039;-65
2022/08/11 10:01:44;;;;;;;4.85;4.35;;;;;;;23.31;100.00;99891.20;1748900;80;21023;-63
2022/08/11 10:04:17;;;;;;;5.70;4.55;;;;;;;23.28;100.00;99889.78;1720792;82;21216;-63
2022/08/11 10:07:01;;;;;;;7.55;4.53;;;;;;;23.39;100.00;99887.78;1753858;80;21033;-65
2022/08/11 10:09:52;;;;;;;8.55;4.40;;;;;;;23.38;100.00;99883.97;1778096;80;21632;-64
2022/08/11 10:12:31;;;;;;;6.97;4.72;;;;;;;23.39;100.00;99886.37;1773335;80;21096;-64
2022/08/11 10:20:59;;;;;;;5.85;5.03;;;;;;;23.54;100.00;99891.44;1757892;80;21028;-64
2022/08/11 10:28:57;;;;;;;8.85;5.03;;;;;;;23.76;100.00;99889.25;1690209;83;21085;-63
2022/08/11 10:34:08;;;;;;;10.05;5.05;;;;;;;24.06;100.00;99880.38;1699994;83;21020;-63
2022/08/11 10:36:42;;;;;;;5.60;5.03;;;;;;;24.01;100.00;99865.31;1674028;83;21042;-64
2022/08/11 10:39:15;;;;;;;4.35;3.90;;;;;;;24.09;100.00;99864.67;1723707;82;21015;-64
2022/08/11 10:44:39;;;;;;;8.00;4.72;;;;;;;24.32;100.00;99856.42;1708027;83;21264;-63
2022/08/11 11:00:57;;;;;;;5.78;4.97;;;;;;;24.97;100.00;99828.59;1711335;82;21073;-63
2022/08/11 11:03:37;;;;;;;6.80;5.72;;;;;;;25.08;100.00;99824.91;1733217;81;21548;-65
2022/08/11 11:06:07;;;;;;;5.60;5.00;;;;;;;25.12;100.00;99812.98;1731185;81;21468;-64
2022/08/11 11:08:54;;;;;;;6.28;5.65;;;;;;;25.14;100.00;99817.59;1737607;81;21039;-64
2022/08/11 11:17:54;;;;;;;9.68;5.03;;;;;;;25.13;100.00;99811.16;1730639;81;21964;-66
2022/08/11 11:19:24;;;;;;;6.95;5.85;;;;;;;25.42;100.00;99819.98;1732822;81;21056;-65
2022/08/11 11:22:36;;;;;;;7.20;5.15;;;;;;;25.49;100.00;99818.52;1736731;81;21544;-64
2022/08/11 11:24:52;;;;;;;7.62;5.45;;;;;;;25.46;100.00;99812.31;1713052;81;21233;-65
2022/08/11 11:27:30;;;;;;;5.92;5.42;;;;;;;25.46;100.00;99815.73;1708600;81;20981;-64
2022/08/11 11:30:07;;;;;;;7.55;4.90;;;;;;;25.62;100.00;99816.61;1736926;81;21059;-64
2022/08/11 11:33:13;;;;;;;5.62;5.08;;;;;;;25.74;100.00;99806.22;1743445;81;21096;-63
2022/08/11 11:36:04;;;;;;;5.95;5.45;;;;;;;25.86;100.00;99817.59;1746522;81;21040;-65
2022/08/11 11:38:31;;;;;;;5.70;5.20;;;;;;;25.90;100.00;99818.97;1741667;81;21545;-65
2022/08/11 11:43:46;;;;;;;7.12;4.83;;;;;;;25.92;100.00;99815.12;1749844;81;21039;-65
2022/08/11 11:46:12;;;;;;;6.33;5.33;;;;;;;25.98;100.00;99818.30;1743132;80;21005;-64
2022/08/11 11:48:39;;;;;;;6.10;4.85;;;;;;;26.07;100.00;99821.41;1731710;82;21322;-63
2022/08/11 11:51:06;;;;;;;6.28;5.20;;;;;;;26.15;100.00;99812.27;1733766;81;21135;-65
2022/08/11 11:53:33;;;;;;;9.13;5.28;;;;;;;26.23;100.00;99813.78;1733002;81;21028;-63
2022/08/11 11:56:02;;;;;;;6.08;5.10;;;;;;;26.26;100.00;99813.53;1735667;81;21044;-64
2022/08/11 12:01:19;;;;;;;8.10;5.30;;;;;;;26.33;100.00;99821.95;1741076;81;21023;-66
2022/08/11 12:03:48;;;;;;;5.72;5.22;;;;;;;26.40;100.00;99818.84;1742674;81;21130;-64
2022/08/11 12:06:18;;;;;;;8.33;5.08;;;;;;;26.45;100.00;99823.42;1744350;80;20976;-63
2022/08/11 12:08:44;;;;;;;6.33;5.60;;;;;;;26.47;100.00;99816.75;1752979;80;21031;-65
2022/08/11 12:14:01;;;;;;;5.45;4.87;;;;;;;26.53;100.00;99821.92;1767674;80;21024;-64
2022/08/11 12:16:31;;;;;;;5.35;4.85;;;;;;;26.59;100.00;99825.27;1778067;80;21044;-63
2022/08/11 12:18:59;;;;;;;5.03;4.50;;;;;;;26.69;100.00;99827.75;1778017;80;21003;-65
2022/08/11 12:21:28;;;;;;;5.05;4.40;;;;;;;26.75;100.00;99825.23;1764472;80;21031;-64
2022/08/11 12:29:26;;;;;;;6.45;4.85;;;;;;;26.68;100.00;99823.94;1740232;81;22080;-65
2022/08/11 12:31:53;;;;;;;7.03;4.80;;;;;;;26.76;100.00;99825.44;1736726;81;21519;-64
2022/08/11 12:34:20;;;;;;;5.10;4.65;;;;;;;26.82;100.00;99824.33;1733580;81;21603;-65
2022/08/11 12:36:55;;;;;;;6.15;5.12;;;;;;;26.82;100.00;99822.92;1741343;81;21002;-66
2022/08/11 12:53:26;;;;;;;12.23;5.28;;;;;;;26.86;100.00;99822.27;1771967;80;21573;-65
2022/08/11 12:58:43;;;;;;;9.80;5.85;;;;;;;26.91;100.00;99831.69;1747988;81;20989;-63
2022/08/11 13:06:45;;;;;;;11.25;5.33;;;;;;;27.05;100.00;99818.59;1747733;81;21091;-63
2022/08/11 13:09:11;;;;;;;5.92;5.33;;;;;;;27.10;100.00;99820.33;1746827;82;21088;-63
2022/08/11 13:14:34;;;;;;;6.78;5.20;;;;;;;27.13;100.00;99828.56;1728980;82;21445;-64
2022/08/11 13:19:45;;;;;;;6.85;6.17;;;;;;;27.02;100.00;99830.73;1727086;81;21091;-63
2022/08/11 13:22:11;;;;;;;7.08;5.90;;;;;;;27.01;100.00;99834.16;1726396;81;21795;-64
2022/08/11 13:24:38;;;;;;;7.12;5.37;;;;;;;26.85;100.00;99831.98;1726781;81;21544;-64
2022/08/11 13:27:05;;;;;;;6.67;5.95;;;;;;;27.15;100.00;99830.35;1726273;83;21055;-65
2022/08/11 13:29:34;;;;;;;5.92;5.37;;;;;;;27.37;100.00;99832.83;1729425;81;21465;-64
2022/08/11 13:32:01;;;;;;;7.37;5.58;;;;;;;27.41;100.00;99827.92;1721049;82;21088;-64
2022/08/11 13:34:30;;;;;;;6.35;5.50;;;;;;;27.44;100.00;99831.30;1747323;82;21053;-64
2022/08/11 13:36:59;;;;;;;8.10;6.65;;;;;;;27.37;100.00;99831.41;1745932;80;21096;-65
2022/08/11 13:39:28;;;;;;;7.12;5.80;;;;;;;27.36;100.00;99831.24;1749627;80;22472;-64
2022/08/11 13:41:58;;;;;;;6.92;6.12;;;;;;;27.38;100.00;99832.22;1748539;80;21172;-66
2022/08/11 13:44:28;;;;;;;9.03;6.15;;;;;;;27.43;100.00;99831.73;1766838;80;20985;-64
2022/08/11 13:47:01;;;;;;;6.83;6.12;;;;;;;27.43;100.00;99831.73;1769967;80;21258;-65
2022/08/11 13:49:32;;;;;;;10.98;5.87;;;;;;;27.25;100.00;99834.23;1777822;80;21067;-65
2022/08/11 13:51:59;;;;;;;6.40;5.72;;;;;;;27.28;100.00;99829.77;1776559;79;21029;-68
2022/08/11 13:54:32;;;;;;;7.65;6.10;;;;;;;27.27;100.00;99826.13;1778343;80;21006;-68
2022/08/11 13:57:02;;;;;;;8.93;6.60;;;;;;;27.24;100.00;99824.77;1775505;80;21033;-67
2022/08/11 13:59:29;;;;;;;12.28;6.35;;;;;;;27.19;100.00;99826.84;1766400;80;21161;-68
2022/08/11 14:02:03;;;;;;;7.67;6.20;;;;;;;27.19;100.00;99826.84;1757458;80;21095;-67
2022/08/11 14:04:59;;;;;;;8.30;5.95;;;;;;;27.18;100.00;99824.44;1760188;80;20989;-68
2022/08/11 14:07:33;;;;;;;7.83;6.00;;;;;;;27.17;100.00;99830.73;1749288;80;21080;-68
2022/08/11 14:10:00;;;;;;;8.43;6.20;;;;;;;27.19;100.00;99826.06;1778167;80;20962;-67
2022/08/11 14:15:26;;;;;;;8.10;6.17;;;;;;;27.27;100.00;99823.30;1717857;82;21503;-67
2022/08/11 14:18:20;;;;;;;7.62;6.58;;;;;;;27.33;100.00;99829.28;1741383;82;21015;-65
2022/08/11 14:23:40;;;;;;;8.50;6.72;;;;;;;27.34;100.00;99820.97;1744307;80;21929;-64
2022/08/11 14:26:27;;;;;;;9.30;7.25;;;;;;;27.38;100.00;99815.25;1740873;80;21533;-64
2022/08/11 14:29:08;;;;;;;14.68;7.37;;;;;;;27.41;100.00;99813.78;1745808;81;20997;-63
2022/08/11 14:31:44;;;;;;;8.70;7.37;;;;;;;27.38;100.00;99808.19;1747114;81;21047;-63
2022/08/11 14:34:13;;;;;;;8.00;7.20;;;;;;;27.38;100.00;99808.19;1764155;80;21016;-64
2022/08/11 14:36:43;;;;;;;8.45;7.60;;;;;;;27.41;100.00;99805.30;1755462;80;21074;-64
2022/08/11 14:39:13;;;;;;;8.05;7.25;;;;;;;27.41;100.00;99805.30;1743273;82;21102;-64
2022/08/11 14:47:25;;;;;;;10.53;8.08;;;;;;;27.65;100.00;99800.23;1742162;81;21068;-65
2022/08/11 14:49:54;;;;;;;12.40;7.85;;;;;;;27.71;100.00;99799.95;1754769;80;21003;-65
2022/08/11 14:52:23;;;;;;;9.25;7.08;;;;;;;27.80;100.00;99803.02;1744506;80;21063;-65
2022/08/11 14:57:38;;;;;;;7.83;6.97;;;;;;;27.85;100.00;99798.89;1768505;80;21064;-65
2022/08/11 15:00:07;;;;;;;8.43;7.40;;;;;;;27.92;100.00;99799.36;1762548;80;21023;-64
2022/08/11 15:05:23;;;;;;;10.60;7.33;;;;;;;27.84;100.00;99793.05;1713361;83;21134;-64
2022/08/11 15:07:51;;;;;;;8.88;7.33;;;;;;;27.89;100.00;99791.14;1727871;81;21033;-64
2022/08/11 15:10:18;;;;;;;10.58;7.62;;;;;;;27.89;100.00;99788.31;1700832;84;21044;-64
2022/08/11 15:12:44;;;;;;;8.68;7.78;;;;;;;27.91;100.00;99793.53;1695375;84;21127;-64
2022/08/11 15:17:58;;;;;;;8.80;7.95;;;;;;;27.89;100.00;99788.31;1728164;81;21109;-63
2022/08/11 15:26:14;;;;;;;8.33;7.33;;;;;;;27.70;100.00;99796.34;1739892;81;21623;-64
2022/08/11 15:37:26;;;;;;;7.87;7.17;;;;;;;27.50;100.00;99804.72;1746795;80;21082;-65
2022/08/11 15:45:54;;;;;;;9.03;7.60;;;;;;;27.36;100.00;99808.62;1748477;81;21247;-64
2022/08/11 15:48:28;;;;;;;11.10;7.97;;;;;;;27.42;100.00;99802.64;1753310;81;21065;-64
2022/08/11 15:50:58;;;;;;;8.48;7.35;;;;;;;27.41;100.00;99796.81;1743687;81;21008;-64
2022/08/11 15:53:44;;;;;;;8.68;7.78;;;;;;;27.41;100.00;99796.81;1741593;80;21027;-65
2022/08/11 15:56:11;;;;;;;9.45;7.80;;;;;;;27.41;100.00;99807.32;1753029;80;21093;-65
2022/08/11 16:04:22;;;;;;;10.03;7.22;;;;;;;27.32;100.00;99798.78;1737605;81;21043;-65
2022/08/11 16:06:59;;;;;;;12.15;7.87;;;;;;;27.29;100.00;99798.23;1734423;82;20988;-64
2022/08/11 16:10:07;;;;;;;11.65;7.70;;;;;;;27.16;100.00;99799.42;1740854;80;21003;-64
2022/08/11 16:18:55;;;;;;;7.55;6.85;;;;;;;27.25;100.00;99798.08;1737906;82;21040;-64
2022/08/11 16:21:25;;;;;;;8.00;7.22;;;;;;;27.25;100.00;99797.47;1742432;82;21127;-64
2022/08/11 16:23:55;;;;;;;9.03;6.83;;;;;;;27.25;100.00;99805.14;1741979;82;21486;-64
2022/08/11 16:26:24;;;;;;;11.57;7.80;;;;;;;27.25;100.00;99798.08;1742629;81;20994;-67
2022/08/11 16:28:54;;;;;;;10.85;7.17;;;;;;;27.25;100.00;99801.72;1738583;82;21058;-65
2022/08/11 16:31:20;;;;;;;15.18;7.95;;;;;;;27.27;100.00;99801.28;1735380;81;21540;-65
2022/08/11 16:33:47;;;;;;;13.18;7.47;;;;;;;27.28;100.00;99809.34;1753145;81;21469;-66
2022/08/11 16:38:58;;;;;;;8.90;7.53;;;;;;;27.26;100.00;99807.55;1739011;81;21065;-63
2022/08/11 16:47:04;;;;;;;9.28;7.78;;;;;;;27.17;100.00;99802.45;1712754;83;20997;-65
2022/08/11 16:49:35;;;;;;;9.65;7.45;;;;;;;27.18;100.00;99808.89;1688586;81;21090;-64
2022/08/11 16:52:04;;;;;;;8.23;7.03;;;;;;;27.11;100.00;99806.98;1732743;81;21079;-65
2022/08/11 16:54:33;;;;;;;8.08;7.28;;;;;;;27.05;100.00;99813.75;1737926;81;21087;-65
2022/08/11 16:59:50;;;;;;;8.25;7.45;;;;;;;27.04;100.00;99811.35;1734063;81;21044;-65
2022/08/11 17:13:38;;;;;;;11.12;6.92;;;;;;;26.77;100.00;99817.77;1731492;81;21011;-64
2022/08/11 17:16:06;;;;;;;8.30;7.35;;;;;;;26.73;100.00;99821.42;1733929;81;21034;-65
2022/08/11 17:19:03;;;;;;;10.70;6.80;;;;;;;26.72;100.00;99825.48;1741304;80;21821;-65
2022/08/11 17:23:45;;;;;;;9.70;7.17;;;;;;;26.70;100.00;99823.69;1743486;81;21527;-65
2022/08/11 17:24:07;;;;;;;10.55;7.70;;;;;;;26.67;100.00;99821.72;1739979;81;21039;-65
2022/08/11 17:26:56;;;;;;;8.45;7.65;;;;;;;26.65;100.00;99825.58;1736632;81;21455;-67
2022/08/11 17:29:45;;;;;;;8.80;7.08;;;;;;;26.64;100.00;99821.16;1733659;81;21020;-66
2022/08/11 17:35:30;;;;;;;8.65;7.25;;;;;;;26.64;100.00;99821.77;1738085;81;21103;-64
2022/08/11 17:38:15;;;;;;;9.50;8.40;;;;;;;26.60;100.00;99818.98;1734566;81;21039;-65
2022/08/11 17:49:24;;;;;;;7.85;7.05;;;;;;;26.44;100.00;99830.91;1734014;81;21995;-66
2022/08/11 18:00:11;;;;;;;11.08;6.90;;;;;;;26.40;100.00;99841.44;1783621;79;21211;-65
2022/08/11 18:05:35;;;;;;;13.08;8.00;;;;;;;26.39;100.00;99843.48;1774881;79;21066;-65
